Time;durP1;ratioP1;P1;durP2;ratioP2;P2;SDS_P1;SDS_P2;PMS_P1;PMS_P2;Temp;Humidity;BMP_temperature;BMP_pressure;BME280_temperature;BME280_humidity;BME280_pressure;Samples;Min_cycle;Max_cycle;Signal;HPM_P1;HPM_P2
2023/05/11 00:00:44;;;;;;;9.13;2.60;;;14.70;99.90;;;;;;4111859;28;20051;-59
2023/05/11 00:02:47;;;;;;;10.77;2.88;;;14.80;99.90;;;;;;4117027;28;20058;-58
2023/05/11 00:04:49;;;;;;;11.00;3.00;;;14.80;99.90;;;;;;4120044;28;20054;-59
2023/05/11 00:06:51;;;;;;;8.63;2.92;;;14.80;99.90;;;;;;4118093;28;20086;-63
2023/05/11 00:08:57;;;;;;;9.20;2.67;;;14.70;99.90;;;;;;4129325;28;20077;-56
2023/05/11 00:11:00;;;;;;;10.05;2.95;;;14.80;99.90;;;;;;4118066;28;20444;-60
2023/05/11 00:13:05;;;;;;;11.18;2.63;;;14.70;99.90;;;;;;4116749;28;20121;-60
2023/05/11 00:15:08;;;;;;;8.90;2.72;;;14.80;99.90;;;;;;4115251;28;20081;-57
2023/05/11 00:17:10;;;;;;;12.23;3.05;;;14.80;99.90;;;;;;4101745;29;20130;-60
2023/05/11 00:19:15;;;;;;;14.52;3.33;;;14.70;99.90;;;;;;4105841;28;20057;-59
2023/05/11 00:21:18;;;;;;;9.13;2.50;;;14.80;99.90;;;;;;4117496;28;20122;-58
2023/05/11 00:23:22;;;;;;;11.68;3.15;;;14.70;99.90;;;;;;4117480;28;20463;-59
2023/05/11 00:25:25;;;;;;;10.80;2.42;;;14.70;99.90;;;;;;4114459;28;20047;-57
2023/05/11 00:27:28;;;;;;;15.35;3.20;;;14.80;99.90;;;;;;4117721;28;20051;-60
2023/05/11 00:29:30;;;;;;;11.15;3.28;;;14.80;99.90;;;;;;4113727;28;20051;-60
2023/05/11 00:31:34;;;;;;;12.15;2.70;;;14.90;99.90;;;;;;4109437;28;20465;-57
2023/05/11 00:33:36;;;;;;;9.63;2.88;;;14.90;99.90;;;;;;4116889;28;20038;-60
2023/05/11 00:35:38;;;;;;;11.25;2.95;;;15.00;99.90;;;;;;4105662;28;20082;-61
2023/05/11 00:37:41;;;;;;;12.20;2.67;;;15.00;99.90;;;;;;4117491;28;20485;-60
2023/05/11 00:39:43;;;;;;;10.30;2.47;;;15.00;99.90;;;;;;4114888;28;20069;-60
2023/05/11 00:41:46;;;;;;;10.30;2.47;;;14.90;99.90;;;;;;4108330;28;20039;-61
2023/05/11 00:43:51;;;;;;;12.30;3.13;;;15.00;99.90;;;;;;4116515;28;20119;-60
2023/05/11 00:45:53;;;;;;;16.17;3.00;;;15.00;99.90;;;;;;4106181;28;20469;-62
2023/05/11 00:47:59;;;;;;;17.00;3.20;;;14.90;99.90;;;;;;4116193;28;20097;-60
2023/05/11 00:50:04;;;;;;;11.63;3.15;;;14.90;99.90;;;;;;4114545;28;20054;-59
2023/05/11 00:52:10;;;;;;;9.48;2.90;;;14.90;99.90;;;;;;4108700;28;20066;-60
2023/05/11 00:54:14;;;;;;;10.88;2.97;;;14.90;99.90;;;;;;4116055;28;20121;-60
2023/05/11 00:56:20;;;;;;;14.07;3.45;;;14.90;99.90;;;;;;4105226;28;20070;-60
2023/05/11 00:58:26;;;;;;;9.65;3.05;;;15.00;99.90;;;;;;4099695;29;20051;-60
2023/05/11 01:00:28;;;;;;;12.70;3.35;;;15.00;99.90;;;;;;4103585;28;20097;-60
2023/05/11 01:02:31;;;;;;;12.85;2.90;;;15.00;99.90;;;;;;4117064;28;20077;-60
2023/05/11 01:04:35;;;;;;;8.73;2.47;;;15.00;99.90;;;;;;4115953;28;20055;-60
2023/05/11 01:06:51;;;;;;;10.52;2.80;;;15.00;99.90;;;;;;4105879;28;20150;-60
2023/05/11 01:09:01;;;;;;;12.25;3.15;;;15.00;99.90;;;;;;4105778;28;20130;-61
2023/05/11 01:11:09;;;;;;;9.45;2.85;;;15.00;99.90;;;;;;4112889;28;20076;-59
2023/05/11 01:13:18;;;;;;;12.77;3.05;;;15.00;99.90;;;;;;4106896;28;20043;-60
2023/05/11 01:15:28;;;;;;;11.93;2.92;;;15.00;99.90;;;;;;4113306;28;20051;-60
2023/05/11 01:17:37;;;;;;;10.00;2.72;;;15.00;99.90;;;;;;4111703;28;20051;-60
2023/05/11 01:19:43;;;;;;;10.02;2.70;;;14.90;99.90;;;;;;4083920;29;20524;-60
2023/05/11 01:21:49;;;;;;;8.82;2.40;;;14.90;99.90;;;;;;4107172;28;20055;-60
2023/05/11 01:24:31;;;;;;;13.57;2.97;;;14.90;99.90;;;;;;4115894;28;20059;-58
2023/05/11 01:26:45;;;;;;;10.48;3.05;;;14.90;99.90;;;;;;4101938;28;20097;-60
2023/05/11 01:29:21;;;;;;;12.52;2.60;;;14.90;99.90;;;;;;4105987;28;20047;-59
2023/05/11 01:31:28;;;;;;;10.15;3.17;;;15.00;99.90;;;;;;4087850;28;20102;-66
2023/05/11 01:33:34;;;;;;;9.27;2.47;;;14.90;99.90;;;;;;4109201;28;20065;-60
2023/05/11 01:35:40;;;;;;;14.02;3.65;;;15.00;99.90;;;;;;4099726;29;20047;-60
2023/05/11 01:37:48;;;;;;;11.80;3.15;;;14.90;99.90;;;;;;4094570;29;20053;-60
2023/05/11 01:39:53;;;;;;;11.82;2.83;;;14.90;99.90;;;;;;4100593;29;20047;-61
2023/05/11 01:42:01;;;;;;;12.93;2.83;;;14.80;99.90;;;;;;4104387;28;20051;-60
2023/05/11 01:44:06;;;;;;;15.75;3.35;;;14.80;99.90;;;;;;4106340;28;20039;-58
2023/05/11 01:46:11;;;;;;;9.32;2.20;;;14.80;99.90;;;;;;4100639;28;20485;-57
2023/05/11 01:48:16;;;;;;;;;;;14.80;99.90;;;;;;4105229;28;20126;-61
2023/05/11 01:50:20;;;;;;;7.25;1.90;;;14.70;99.90;;;;;;4116320;28;19922;-57
2023/05/11 01:52:24;;;;;;;8.10;2.35;;;14.70;99.90;;;;;;4111488;28;20134;-57
2023/05/11 01:54:28;;;;;;;8.35;2.22;;;14.70;99.90;;;;;;4108382;28;20050;-58
2023/05/11 01:56:32;;;;;;;13.52;2.60;;;14.70;99.90;;;;;;4116097;28;20476;-58
2023/05/11 01:58:37;;;;;;;9.15;2.10;;;14.80;99.90;;;;;;4104336;28;20476;-57
2023/05/11 02:00:42;;;;;;;11.82;2.33;;;14.70;99.90;;;;;;4116390;28;20445;-58
2023/05/11 02:02:46;;;;;;;8.95;2.05;;;14.80;99.90;;;;;;4111990;28;20053;-57
2023/05/11 02:04:51;;;;;;;9.07;2.28;;;14.80;99.90;;;;;;4105800;28;20565;-58
2023/05/11 02:06:55;;;;;;;9.98;2.45;;;14.70;99.90;;;;;;4100414;28;20054;-57
2023/05/11 02:08:59;;;;;;;11.77;2.80;;;14.80;99.90;;;;;;4111401;28;20441;-57
2023/05/11 02:11:03;;;;;;;10.25;1.98;;;14.80;99.90;;;;;;4115895;28;20493;-57
2023/05/11 02:13:05;;;;;;;7.57;1.90;;;14.70;99.90;;;;;;4110912;28;20094;-60
2023/05/11 02:15:10;;;;;;;9.93;2.20;;;14.80;99.90;;;;;;4094843;29;20134;-60
2023/05/11 02:17:14;;;;;;;7.47;2.28;;;14.70;99.90;;;;;;4115813;28;20121;-60
2023/05/11 02:19:17;;;;;;;10.15;2.35;;;14.80;99.90;;;;;;4104344;28;20437;-60
2023/05/11 02:21:21;;;;;;;7.97;1.90;;;14.80;99.90;;;;;;4115731;28;20055;-60
2023/05/11 02:23:25;;;;;;;11.50;2.40;;;14.70;99.90;;;;;;4111387;28;20065;-60
2023/05/11 02:25:28;;;;;;;7.30;2.15;;;14.70;99.90;;;;;;4110068;28;20054;-61
2023/05/11 02:27:31;;;;;;;10.38;2.67;;;14.70;99.90;;;;;;4131289;28;20060;-60
2023/05/11 02:29:33;;;;;;;9.15;2.70;;;14.70;99.90;;;;;;4103689;28;20047;-60
2023/05/11 02:31:41;;;;;;;9.48;2.47;;;14.70;99.90;;;;;;4115749;28;20046;-60
2023/05/11 02:33:47;;;;;;;9.52;2.38;;;14.70;99.90;;;;;;4111262;28;20050;-60
2023/05/11 02:35:55;;;;;;;13.57;2.80;;;14.70;99.90;;;;;;4091717;28;20043;-60
2023/05/11 02:38:01;;;;;;;15.75;2.75;;;14.70;99.90;;;;;;4115098;28;20057;-60
2023/05/11 02:40:09;;;;;;;13.45;2.17;;;14.70;99.90;;;;;;4093270;29;20588;-60
2023/05/11 02:42:14;;;;;;;12.55;2.50;;;14.70;99.90;;;;;;4099226;29;20094;-59
2023/05/11 02:44:17;;;;;;;10.57;2.33;;;14.70;99.90;;;;;;4104376;28;20118;-59
2023/05/11 02:46:23;;;;;;;7.78;2.22;;;14.90;99.90;;;;;;4105001;28;20107;-59
2023/05/11 02:48:29;;;;;;;8.82;2.83;;;14.80;99.90;;;;;;4100742;28;20122;-58
2023/05/11 02:50:36;;;;;;;11.63;2.97;;;14.80;99.90;;;;;;4110233;28;20051;-59
2023/05/11 02:52:43;;;;;;;12.00;2.50;;;14.80;99.90;;;;;;4099553;29;20413;-59
2023/05/11 02:54:49;;;;;;;7.82;2.47;;;14.80;99.90;;;;;;4105245;28;20039;-60
2023/05/11 02:56:52;;;;;;;7.85;1.98;;;14.80;99.90;;;;;;4103205;28;20066;-60
2023/05/11 02:58:54;;;;;;;6.90;2.05;;;14.70;99.90;;;;;;4100965;28;20467;-60
2023/05/11 03:00:57;;;;;;;12.63;2.70;;;14.70;99.90;;;;;;4113153;28;20046;-60
2023/05/11 03:02:59;;;;;;;9.07;2.40;;;14.80;99.90;;;;;;4115357;28;20047;-60
2023/05/11 03:05:03;;;;;;;11.77;2.40;;;14.70;99.90;;;;;;4090212;29;20098;-61
2023/05/11 03:07:06;;;;;;;7.70;2.00;;;14.70;99.90;;;;;;4110050;28;20082;-60
2023/05/11 03:09:08;;;;;;;10.18;2.33;;;14.60;99.90;;;;;;4114190;28;20094;-58
2023/05/11 03:11:16;;;;;;;9.60;2.28;;;14.60;99.90;;;;;;4109584;28;20065;-57
2023/05/11 03:13:20;;;;;;;7.78;1.90;;;14.60;99.90;;;;;;4099330;29;20047;-57
2023/05/11 03:15:22;;;;;;;6.40;1.75;;;14.70;99.90;;;;;;4109125;28;20050;-61
2023/05/11 03:17:26;;;;;;;8.35;1.80;;;14.60;99.90;;;;;;4104410;28;20051;-57
2023/05/11 03:19:29;;;;;;;7.15;1.90;;;14.60;99.90;;;;;;4100192;28;20087;-57
2023/05/11 03:21:33;;;;;;;6.15;1.75;;;14.50;99.90;;;;;;4112144;28;20053;-57
2023/05/11 03:23:36;;;;;;;8.20;1.70;;;14.50;99.90;;;;;;4115115;28;20061;-57
2023/05/11 03:25:40;;;;;;;9.02;2.25;;;14.50;99.90;;;;;;4113049;28;20409;-58
2023/05/11 03:27:45;;;;;;;7.93;1.92;;;14.40;99.90;;;;;;4120554;28;20051;-58
2023/05/11 03:29:48;;;;;;;7.30;2.05;;;14.40;99.90;;;;;;4113391;28;20046;-61
2023/05/11 03:31:51;;;;;;;8.48;2.08;;;14.40;99.90;;;;;;4103878;28;20047;-58
2023/05/11 03:33:53;;;;;;;13.23;1.70;;;14.40;99.90;;;;;;4115063;28;20042;-57
2023/05/11 03:35:57;;;;;;;7.78;1.58;;;14.30;99.90;;;;;;4108249;28;20044;-60
2023/05/11 03:37:59;;;;;;;8.32;2.40;;;14.30;99.90;;;;;;4108697;28;20053;-57
2023/05/11 03:40:03;;;;;;;7.50;1.40;;;14.30;99.90;;;;;;4113677;28;20039;-59
2023/05/11 03:42:06;;;;;;;8.77;2.37;;;14.40;99.90;;;;;;4103628;28;20059;-59
2023/05/11 03:44:11;;;;;;;7.13;2.17;;;14.30;99.90;;;;;;4114354;28;20386;-60
2023/05/11 03:46:17;;;;;;;8.70;2.03;;;14.40;99.90;;;;;;4109228;28;20043;-60
2023/05/11 03:48:20;;;;;;;7.97;2.15;;;14.30;99.90;;;;;;4108750;28;20086;-59
2023/05/11 03:50:22;;;;;;;5.63;1.50;;;14.30;99.90;;;;;;4114234;28;20051;-63
2023/05/11 03:52:25;;;;;;;9.35;1.92;;;14.30;99.90;;;;;;4109880;28;20045;-60
2023/05/11 03:54:27;;;;;;;10.70;2.42;;;14.30;99.90;;;;;;4098123;29;20040;-60
2023/05/11 03:56:29;;;;;;;9.77;1.85;;;14.30;99.90;;;;;;4102799;28;20042;-60
2023/05/11 03:58:32;;;;;;;10.80;2.00;;;14.30;99.90;;;;;;4106207;28;20540;-59
2023/05/11 04:00:38;;;;;;;8.25;1.80;;;14.30;99.90;;;;;;4083988;29;20454;-59
2023/05/11 04:02:40;;;;;;;10.35;1.92;;;14.30;99.90;;;;;;4110488;28;20299;-59
2023/05/11 04:04:43;;;;;;;7.35;2.03;;;14.30;99.90;;;;;;4098161;29;20516;-59
2023/05/11 04:06:45;;;;;;;10.25;2.28;;;14.30;99.90;;;;;;4102516;28;20168;-59
2023/05/11 04:08:47;;;;;;;5.07;1.80;;;14.30;99.90;;;;;;4109719;28;20106;-59
2023/05/11 04:10:49;;;;;;;9.50;1.98;;;14.30;99.90;;;;;;4115004;28;20055;-59
2023/05/11 04:12:52;;;;;;;8.85;2.15;;;14.30;99.90;;;;;;4110451;28;20051;-58
2023/05/11 04:14:54;;;;;;;7.32;2.17;;;14.20;99.90;;;;;;4109472;28;20465;-56
2023/05/11 04:16:58;;;;;;;11.60;2.03;;;14.20;99.90;;;;;;4102721;28;20048;-56
2023/05/11 04:19:00;;;;;;;11.48;2.38;;;14.20;99.90;;;;;;4107643;28;20130;-59
2023/05/11 04:21:05;;;;;;;8.18;1.70;;;14.30;99.90;;;;;;4104328;28;20046;-59
2023/05/11 04:23:07;;;;;;;10.17;2.13;;;14.30;99.90;;;;;;4103845;28;20051;-56
2023/05/11 04:25:12;;;;;;;9.38;2.10;;;14.30;99.90;;;;;;4112722;28;20050;-58
2023/05/11 04:27:15;;;;;;;9.15;2.13;;;14.30;99.90;;;;;;4120282;28;20131;-59
2023/05/11 04:29:17;;;;;;;7.65;2.00;;;14.30;99.90;;;;;;4107878;28;20047;-59
2023/05/11 04:31:19;;;;;;;10.00;2.38;;;14.40;99.90;;;;;;4081654;29;20134;-59
2023/05/11 04:33:23;;;;;;;8.35;2.17;;;14.30;99.90;;;;;;4110798;28;20529;-59
2023/05/11 04:35:25;;;;;;;5.68;2.00;;;14.30;99.90;;;;;;4102014;28;20051;-60
2023/05/11 04:37:27;;;;;;;12.82;2.70;;;14.20;99.90;;;;;;4102616;28;20493;-59
2023/05/11 04:39:30;;;;;;;7.90;2.38;;;14.30;99.90;;;;;;4106835;28;20472;-60
2023/05/11 04:41:32;;;;;;;8.10;1.70;;;14.30;99.90;;;;;;4116124;28;20053;-59
2023/05/11 04:43:34;;;;;;;12.55;2.33;;;14.30;99.90;;;;;;4108290;28;20051;-60
2023/05/11 04:45:36;;;;;;;7.72;2.00;;;14.30;99.90;;;;;;4113401;28;20134;-60
2023/05/11 04:47:38;;;;;;;11.65;2.17;;;14.30;99.90;;;;;;4115886;28;20047;-60
2023/05/11 04:49:43;;;;;;;6.95;2.47;;;14.40;99.90;;;;;;4127002;28;20527;-60
2023/05/11 04:51:45;;;;;;;10.68;2.40;;;14.40;99.90;;;;;;4117361;28;20102;-60
2023/05/11 04:53:47;;;;;;;12.60;2.40;;;14.40;99.90;;;;;;4108801;28;20049;-60
2023/05/11 04:55:49;;;;;;;8.30;2.35;;;14.40;99.90;;;;;;4112268;28;20074;-60
2023/05/11 04:57:51;;;;;;;7.65;2.03;;;14.40;99.90;;;;;;4115695;28;20043;-61
2023/05/11 04:59:53;;;;;;;10.57;2.08;;;14.40;99.90;;;;;;4106229;28;20432;-60
2023/05/11 05:01:55;;;;;;;16.10;2.30;;;14.40;99.90;;;;;;4099641;29;20078;-60
2023/05/11 05:03:57;;;;;;;8.05;2.13;;;14.50;99.90;;;;;;4112733;28;20038;-60
2023/05/11 05:06:00;;;;;;;12.95;2.33;;;14.40;99.90;;;;;;4105855;28;20047;-60
2023/05/11 05:08:02;;;;;;;4.75;1.90;;;14.50;99.90;;;;;;4102009;28;20573;-60
2023/05/11 05:10:07;;;;;;;10.30;2.45;;;14.40;99.90;;;;;;4125535;28;20061;-60
2023/05/11 05:12:09;;;;;;;;;;;14.40;99.90;;;;;;4117566;28;20042;-60
2023/05/11 05:14:11;;;;;;;12.50;2.72;;;14.40;99.90;;;;;;4115165;28;19922;-60
2023/05/11 05:16:13;;;;;;;8.02;2.40;;;14.40;99.90;;;;;;4106324;28;20508;-60
2023/05/11 05:18:15;;;;;;;13.35;2.70;;;14.40;99.90;;;;;;4101013;28;20054;-61
2023/05/11 05:20:17;;;;;;;10.57;2.45;;;14.40;99.90;;;;;;4113237;28;20066;-60
2023/05/11 05:22:22;;;;;;;11.48;2.25;;;14.50;99.90;;;;;;4116692;28;20047;-60
2023/05/11 05:24:24;;;;;;;8.50;1.88;;;14.50;99.90;;;;;;4112554;28;20397;-60
2023/05/11 05:26:26;;;;;;;8.48;2.28;;;14.50;99.90;;;;;;4117862;28;20109;-59
2023/05/11 05:28:28;;;;;;;11.85;2.70;;;14.50;99.90;;;;;;4116713;28;20477;-58
2023/05/11 05:30:30;;;;;;;11.95;2.80;;;14.50;99.90;;;;;;4104704;28;20051;-60
2023/05/11 05:32:32;;;;;;;10.38;1.88;;;14.50;99.90;;;;;;4100608;29;20150;-59
2023/05/11 05:34:35;;;;;;;8.38;1.90;;;14.50;99.90;;;;;;4103289;28;20101;-60
2023/05/11 05:36:38;;;;;;;14.30;2.83;;;14.50;99.90;;;;;;4107608;28;20058;-59
2023/05/11 05:38:41;;;;;;;9.90;2.85;;;14.50;99.90;;;;;;4116780;28;20405;-60
2023/05/11 05:40:43;;;;;;;8.18;2.33;;;14.50;99.90;;;;;;4105631;28;20061;-60
2023/05/11 05:42:45;;;;;;;6.88;2.28;;;14.60;99.90;;;;;;4115230;28;20050;-60
2023/05/11 05:44:48;;;;;;;12.77;3.05;;;14.60;99.90;;;;;;4113471;28;20046;-60
2023/05/11 05:46:50;;;;;;;8.40;2.50;;;14.50;99.90;;;;;;4106504;28;20047;-60
2023/05/11 05:48:52;;;;;;;8.27;2.58;;;14.60;99.90;;;;;;4116423;28;20051;-60
2023/05/11 05:50:54;;;;;;;14.70;2.47;;;14.60;99.90;;;;;;4106193;28;20082;-60
2023/05/11 05:52:56;;;;;;;12.13;2.90;;;14.70;99.90;;;;;;4114316;28;20390;-60
2023/05/11 05:55:00;;;;;;;13.75;2.38;;;14.60;99.90;;;;;;4113590;28;20062;-60
2023/05/11 05:57:02;;;;;;;8.55;2.22;;;14.60;99.90;;;;;;4105359;28;20112;-60
2023/05/11 05:59:04;;;;;;;11.70;3.10;;;14.60;99.90;;;;;;4116269;28;20424;-60
2023/05/11 06:01:07;;;;;;;10.48;2.50;;;14.70;99.90;;;;;;4113999;28;20043;-60
2023/05/11 06:03:09;;;;;;;7.53;2.50;;;14.70;99.90;;;;;;4116333;28;20451;-60
2023/05/11 06:05:11;;;;;;;9.48;2.50;;;14.80;99.90;;;;;;4113518;28;20051;-60
2023/05/11 06:07:13;;;;;;;9.57;2.33;;;14.80;99.90;;;;;;4105321;28;20311;-60
2023/05/11 06:09:16;;;;;;;11.65;2.20;;;14.80;99.90;;;;;;4115962;28;20140;-60
2023/05/11 06:11:20;;;;;;;12.77;2.80;;;14.70;99.90;;;;;;4111744;28;20129;-60
2023/05/11 06:13:22;;;;;;;12.00;2.65;;;14.80;99.90;;;;;;4104262;28;20047;-58
2023/05/11 06:15:25;;;;;;;10.68;2.63;;;14.90;99.90;;;;;;4112644;28;20063;-60
2023/05/11 06:17:27;;;;;;;12.52;2.85;;;14.90;99.90;;;;;;4111012;28;20078;-60
2023/05/11 06:19:29;;;;;;;14.50;3.50;;;14.90;99.90;;;;;;4099675;29;20406;-61
2023/05/11 06:21:31;;;;;;;12.48;2.75;;;14.90;99.90;;;;;;4104611;28;20459;-61
2023/05/11 06:23:33;;;;;;;11.10;2.65;;;14.90;99.90;;;;;;4115786;28;20157;-57
2023/05/11 06:25:35;;;;;;;8.27;2.35;;;14.80;99.90;;;;;;4097005;28;20078;-61
2023/05/11 06:27:39;;;;;;;10.05;3.03;;;14.90;99.90;;;;;;4110807;28;20049;-61
2023/05/11 06:29:41;;;;;;;13.02;3.00;;;14.90;99.90;;;;;;4100019;29;20102;-60
2023/05/11 06:31:51;;;;;;;9.70;2.78;;;15.00;99.90;;;;;;4104833;28;20039;-63
2023/05/11 06:33:53;;;;;;;14.65;3.08;;;15.00;99.90;;;;;;4105555;28;20055;-60
2023/05/11 06:35:55;;;;;;;9.10;2.85;;;15.00;99.90;;;;;;4099559;28;20055;-60
2023/05/11 06:37:58;;;;;;;10.32;3.55;;;15.00;99.90;;;;;;4110751;28;20046;-60
2023/05/11 06:40:00;;;;;;;12.38;2.78;;;15.00;99.90;;;;;;4099927;29;20047;-60
2023/05/11 06:42:03;;;;;;;13.23;2.40;;;15.10;99.90;;;;;;4086182;29;20052;-60
2023/05/11 06:44:09;;;;;;;11.48;3.10;;;15.20;99.90;;;;;;4109275;28;20437;-60
2023/05/11 06:46:15;;;;;;;9.82;2.70;;;15.20;99.90;;;;;;4114100;28;20457;-60
2023/05/11 06:48:17;;;;;;;10.93;3.03;;;15.10;99.90;;;;;;4104031;28;20130;-58
2023/05/11 06:50:19;;;;;;;15.00;3.30;;;15.10;99.90;;;;;;4115524;28;20452;-58
2023/05/11 06:52:22;;;;;;;11.95;3.38;;;15.10;99.90;;;;;;4110324;28;20486;-60
2023/05/11 06:54:25;;;;;;;13.35;3.28;;;15.00;99.90;;;;;;4107931;28;20055;-58
2023/05/11 06:56:27;;;;;;;10.52;3.15;;;15.10;99.90;;;;;;4114142;28;20053;-59
2023/05/11 06:58:30;;;;;;;15.70;3.00;;;15.20;99.90;;;;;;4111251;28;20070;-58
2023/05/11 07:00:33;;;;;;;12.35;3.75;;;15.00;99.90;;;;;;4101272;28;20454;-58
2023/05/11 07:02:35;;;;;;;13.43;3.15;;;15.10;99.90;;;;;;4110728;28;20134;-57
2023/05/11 07:04:37;;;;;;;13.07;2.78;;;15.20;99.90;;;;;;4107287;28;20047;-58
2023/05/11 07:06:39;;;;;;;10.88;3.15;;;15.20;99.90;;;;;;4098767;29;20086;-58
2023/05/11 07:08:41;;;;;;;10.60;3.10;;;15.30;99.90;;;;;;4110154;28;20121;-57
2023/05/11 07:10:43;;;;;;;8.38;2.70;;;15.30;99.90;;;;;;4115487;28;20251;-57
2023/05/11 07:12:45;;;;;;;12.75;3.40;;;15.30;99.90;;;;;;4112877;28;20117;-58
2023/05/11 07:14:47;;;;;;;16.08;3.58;;;15.40;99.90;;;;;;4109354;28;20047;-58
2023/05/11 07:16:51;;;;;;;12.18;3.15;;;15.40;99.90;;;;;;4115133;28;20420;-58
2023/05/11 07:18:54;;;;;;;12.40;3.05;;;15.50;99.90;;;;;;4104846;28;20043;-60
2023/05/11 07:20:56;;;;;;;13.07;2.90;;;15.40;99.90;;;;;;4113461;28;20046;-60
2023/05/11 07:22:58;;;;;;;14.85;3.45;;;15.60;99.90;;;;;;4110543;28;20051;-61
2023/05/11 07:25:00;;;;;;;12.88;2.97;;;15.50;99.90;;;;;;4108783;28;20054;-60
2023/05/11 07:27:02;;;;;;;11.73;3.30;;;15.50;99.90;;;;;;4128476;28;20133;-60
2023/05/11 07:29:04;;;;;;;12.43;3.75;;;15.60;99.90;;;;;;4114111;28;20054;-61
2023/05/11 07:31:06;;;;;;;13.95;4.40;;;15.60;99.90;;;;;;4102254;28;20054;-60
2023/05/11 07:33:12;;;;;;;11.38;3.05;;;15.80;99.90;;;;;;4101545;28;20074;-60
2023/05/11 07:35:14;;;;;;;13.23;3.08;;;15.80;99.90;;;;;;4103367;28;20058;-60
2023/05/11 07:37:17;;;;;;;13.18;3.80;;;15.80;99.90;;;;;;4115007;28;20047;-58
2023/05/11 07:39:19;;;;;;;11.45;3.72;;;15.90;99.90;;;;;;4106583;28;20055;-61
2023/05/11 07:41:24;;;;;;;17.73;3.80;;;15.80;99.90;;;;;;4111273;28;20413;-60
2023/05/11 07:43:27;;;;;;;10.10;2.88;;;16.00;99.90;;;;;;4113420;28;20090;-60
2023/05/11 07:45:28;;;;;;;10.98;3.78;;;15.90;99.90;;;;;;4102981;28;20481;-58
2023/05/11 07:47:30;;;;;;;11.63;3.08;;;15.90;99.90;;;;;;4114443;28;20081;-60
2023/05/11 07:49:37;;;;;;;8.32;2.55;;;15.90;99.70;;;;;;4104628;28;20404;-61
2023/05/11 07:51:45;;;;;;;13.40;2.90;;;16.00;99.70;;;;;;4102372;28;20394;-60
2023/05/11 07:53:47;;;;;;;14.88;3.05;;;16.00;99.90;;;;;;4099928;28;20043;-60
2023/05/11 07:55:49;;;;;;;13.13;3.15;;;16.10;99.90;;;;;;4108529;28;20408;-60
2023/05/11 07:57:53;;;;;;;11.82;3.65;;;16.30;99.90;;;;;;4098954;29;20416;-60
2023/05/11 07:59:55;;;;;;;10.50;3.28;;;16.30;99.90;;;;;;4105583;28;20050;-60
2023/05/11 08:01:57;;;;;;;12.70;3.67;;;16.40;99.00;;;;;;4114222;28;20055;-60
2023/05/11 08:03:59;;;;;;;15.43;3.88;;;16.40;99.40;;;;;;4113303;28;20061;-59
2023/05/11 08:06:03;;;;;;;13.45;3.55;;;16.60;99.00;;;;;;4102592;28;20099;-61
2023/05/11 08:08:05;;;;;;;10.40;3.08;;;16.60;98.80;;;;;;4117103;28;20129;-59
2023/05/11 08:10:08;;;;;;;14.80;3.28;;;16.60;99.30;;;;;;4113663;28;20074;-59
2023/05/11 08:12:11;;;;;;;12.25;3.17;;;16.60;98.80;;;;;;4107523;28;20126;-60
2023/05/11 08:14:13;;;;;;;14.10;3.85;;;16.70;98.60;;;;;;4107564;28;20053;-59
2023/05/11 08:16:15;;;;;;;12.18;2.78;;;16.70;98.40;;;;;;4105631;28;20061;-60
2023/05/11 08:18:17;;;;;;;12.15;3.33;;;16.70;99.00;;;;;;4118086;28;20097;-60
2023/05/11 08:20:19;;;;;;;12.50;2.90;;;16.70;98.70;;;;;;4112561;28;20460;-59
2023/05/11 08:22:23;;;;;;;15.75;3.33;;;16.70;98.70;;;;;;4110973;28;20413;-61
2023/05/11 08:24:25;;;;;;;18.20;3.00;;;16.60;98.90;;;;;;4117247;28;20137;-60
2023/05/11 08:26:27;;;;;;;9.23;3.03;;;16.60;98.80;;;;;;4122401;28;20043;-60
2023/05/11 08:28:29;;;;;;;10.10;3.00;;;16.70;99.00;;;;;;4117834;28;20078;-60
2023/05/11 08:30:31;;;;;;;19.25;3.67;;;16.60;98.80;;;;;;4113365;28;20431;-60
2023/05/11 08:32:34;;;;;;;15.27;3.42;;;16.70;98.40;;;;;;4092317;29;20049;-60
2023/05/11 08:34:55;;;;;;;12.45;3.47;;;16.90;98.60;;;;;;4109283;28;20055;-60
2023/05/11 08:37:00;;;;;;;13.38;3.80;;;17.00;99.10;;;;;;4114402;28;20047;-60
2023/05/11 08:39:04;;;;;;;12.93;3.20;;;17.20;98.10;;;;;;4114989;28;20050;-60
2023/05/11 08:41:07;;;;;;;16.27;3.20;;;17.20;97.80;;;;;;4111640;28;20053;-60
2023/05/11 08:43:10;;;;;;;12.88;3.03;;;17.20;97.70;;;;;;4107424;28;20051;-58
2023/05/11 08:45:12;;;;;;;16.42;2.92;;;17.30;97.30;;;;;;4109624;28;20503;-60
2023/05/11 08:47:16;;;;;;;11.75;3.38;;;17.30;97.60;;;;;;4110904;28;20134;-60
2023/05/11 08:49:25;;;;;;;16.45;3.80;;;17.40;97.20;;;;;;4109281;28;20098;-62
2023/05/11 08:51:27;;;;;;;13.30;3.78;;;17.50;97.30;;;;;;4108631;28;20075;-58
2023/05/11 08:53:29;;;;;;;15.13;4.43;;;17.60;96.70;;;;;;4110622;28;20089;-58
2023/05/11 08:55:34;;;;;;;11.65;2.70;;;17.70;96.30;;;;;;4113688;28;20039;-58
2023/05/11 08:57:37;;;;;;;13.50;2.97;;;17.80;96.20;;;;;;4112101;28;20126;-58
2023/05/11 08:59:40;;;;;;;16.15;3.28;;;17.90;96.10;;;;;;4115404;28;20050;-58
2023/05/11 09:01:43;;;;;;;13.52;3.55;;;18.20;95.80;;;;;;4109396;28;20087;-57
2023/05/11 09:03:46;;;;;;;17.35;3.70;;;18.30;96.00;;;;;;4110538;28;20054;-57
2023/05/11 09:05:48;;;;;;;18.67;2.97;;;18.50;95.60;;;;;;4107747;28;20460;-59
2023/05/11 09:07:55;;;;;;;12.50;3.30;;;18.60;95.40;;;;;;4112297;28;20129;-60
2023/05/11 09:09:58;;;;;;;14.18;3.80;;;18.70;94.80;;;;;;4108533;28;20047;-60
2023/05/11 09:12:02;;;;;;;10.73;2.88;;;18.70;95.00;;;;;;4106881;28;20066;-59
2023/05/11 09:14:04;;;;;;;11.68;3.08;;;18.60;95.00;;;;;;4111661;28;20394;-60
2023/05/11 09:16:06;;;;;;;13.02;3.17;;;18.80;95.00;;;;;;4106976;28;20051;-60
2023/05/11 09:18:28;;;;;;;14.55;2.78;;;18.80;94.80;;;;;;4109936;28;20078;-59
2023/05/11 09:20:32;;;;;;;10.80;2.83;;;18.80;94.30;;;;;;4108672;28;20052;-58
2023/05/11 09:22:40;;;;;;;14.35;3.33;;;18.70;94.30;;;;;;4112398;28;20062;-58
2023/05/11 09:24:42;;;;;;;12.68;3.25;;;18.70;94.70;;;;;;4112574;28;20051;-60
2023/05/11 09:26:44;;;;;;;10.80;3.08;;;18.60;94.80;;;;;;4111131;28;20039;-57
2023/05/11 09:28:53;;;;;;;10.73;3.13;;;18.50;94.00;;;;;;4106379;28;20051;-62
2023/05/11 09:31:04;;;;;;;12.57;3.40;;;18.50;94.10;;;;;;4111063;28;20047;-59
2023/05/11 09:33:07;;;;;;;14.65;3.08;;;18.40;94.30;;;;;;4107120;28;20505;-58
2023/05/11 09:35:19;;;;;;;11.35;3.65;;;18.30;94.50;;;;;;4109944;28;20046;-60
2023/05/11 09:37:21;;;;;;;17.35;3.15;;;18.20;94.40;;;;;;4109871;28;20047;-58
2023/05/11 09:39:30;;;;;;;14.45;3.42;;;18.10;94.80;;;;;;4111275;28;20057;-60
2023/05/11 09:41:42;;;;;;;13.48;3.10;;;18.00;95.40;;;;;;4113901;28;20074;-60
2023/05/11 09:43:44;;;;;;;14.90;3.05;;;17.90;94.60;;;;;;4111375;28;20488;-58
2023/05/11 09:45:49;;;;;;;13.93;2.88;;;17.80;95.20;;;;;;4100242;28;20055;-57
2023/05/11 09:47:51;;;;;;;17.58;3.25;;;17.80;94.90;;;;;;4101597;28;20039;-59
2023/05/11 09:49:53;;;;;;;13.00;3.20;;;17.80;95.00;;;;;;4113291;28;20051;-60
2023/05/11 09:52:00;;;;;;;13.18;3.05;;;17.80;95.10;;;;;;4115165;28;20047;-60
2023/05/11 09:54:18;;;;;;;13.93;3.60;;;17.70;95.10;;;;;;4109505;28;20674;-58
2023/05/11 09:56:20;;;;;;;13.48;3.50;;;17.70;95.20;;;;;;4098044;29;20050;-58
2023/05/11 09:58:22;;;;;;;18.40;4.10;;;17.60;95.60;;;;;;4102708;28;20045;-60
2023/05/11 10:00:25;;;;;;;14.23;3.42;;;17.70;95.50;;;;;;4109114;28;20493;-59
2023/05/11 10:02:30;;;;;;;10.25;2.78;;;17.70;96.00;;;;;;4105911;28;20149;-57
2023/05/11 10:04:33;;;;;;;8.90;3.05;;;17.70;95.90;;;;;;4110527;28;20493;-60
2023/05/11 10:06:49;;;;;;;14.55;3.33;;;17.60;95.50;;;;;;4099093;28;20478;-61
2023/05/11 10:08:52;;;;;;;16.20;3.72;;;17.70;95.60;;;;;;4087598;29;20110;-57
2023/05/11 10:10:55;;;;;;;11.93;3.38;;;17.80;95.70;;;;;;4106541;28;20489;-60
2023/05/11 10:12:58;;;;;;;10.68;3.38;;;17.80;95.90;;;;;;4099414;29;20482;-60
2023/05/11 10:15:02;;;;;;;11.85;3.08;;;17.80;95.60;;;;;;4102109;28;20095;-58
2023/05/11 10:17:04;;;;;;;11.70;4.18;;;17.90;96.00;;;;;;4108847;28;20051;-59
2023/05/11 10:19:08;;;;;;;11.98;3.83;;;17.80;95.50;;;;;;4103088;28;20068;-58
2023/05/11 10:21:11;;;;;;;13.77;3.47;;;18.00;95.30;;;;;;4113878;28;20503;-60
2023/05/11 10:23:14;;;;;;;8.15;2.80;;;17.90;95.10;;;;;;4097859;28;20532;-58
2023/05/11 10:25:17;;;;;;;12.50;3.22;;;18.00;95.10;;;;;;4110579;28;20466;-58
2023/05/11 10:27:20;;;;;;;13.15;3.15;;;18.20;94.40;;;;;;4113444;28;20043;-57
2023/05/11 10:29:23;;;;;;;14.15;3.95;;;18.20;94.90;;;;;;4105631;28;20067;-60
2023/05/11 10:31:25;;;;;;;11.95;2.70;;;18.20;94.40;;;;;;4114333;28;20536;-60
2023/05/11 10:33:28;;;;;;;12.07;2.92;;;18.30;94.50;;;;;;4112663;28;20110;-61
2023/05/11 10:35:32;;;;;;;10.00;3.10;;;18.30;94.40;;;;;;4103172;28;20057;-61
2023/05/11 10:37:34;;;;;;;9.07;3.08;;;18.30;94.50;;;;;;4113657;28;20097;-61
2023/05/11 10:39:37;;;;;;;10.93;2.95;;;18.40;94.40;;;;;;4094031;29;20537;-60